ETD567 VABB-VOMM
Flight info
| Callsign | ETD567 |
|---|---|
| Flight time | 1h 45m |
| Altitude | 41000 |
| Route | VEVAK2A EPKOS Q9 OPAMO OPAMO2F |
| Aircraft | A35K/H-SDE2E3GHIJ3J4J5LM1ORWXY/LB1D1 |
Departure
| Time | 2026-05-07 18:58 |
|---|---|
| Airport | Chhatrapati Shivaji Maharaj International Airport (VABB) |
Arrival
| Time | 2026-05-07 20:43 |
|---|---|
| Airport | Chennai International Airport (VOMM) |
| Time | Latitude | Longitude | Altitude | Speed | Heading |
|---|---|---|---|---|---|
| 2026-05-07 18:15 | 19.09302 | 72.87082 | 26 ft | 0 kts | 33° |
| 2026-05-07 18:47 | 19.09293 | 72.87076 | 29 ft | 2 kts | 38° |
| 2026-05-07 18:47 | 19.09280 | 72.87064 | 30 ft | 2 kts | 45° |
| 2026-05-07 18:47 | 19.09269 | 72.87051 | 28 ft | 2 kts | 56° |
| 2026-05-07 18:48 | 19.09262 | 72.87035 | 29 ft | 2 kts | 71° |
| 2026-05-07 18:48 | 19.09258 | 72.87018 | 27 ft | 2 kts | 88° |
| 2026-05-07 18:48 | 19.09260 | 72.87001 | 28 ft | 2 kts | 103° |
| 2026-05-07 18:48 | 19.09265 | 72.86984 | 29 ft | 2 kts | 116° |
| 2026-05-07 18:49 | 19.09272 | 72.86971 | 27 ft | 1 kts | 123° |
| 2026-05-07 18:49 | 19.09274 | 72.86968 | 27 ft | 0 kts | 125° |
| 2026-05-07 18:51 | 19.09265 | 72.86982 | 29 ft | 5 kts | 126° |
| 2026-05-07 18:51 | 19.09242 | 72.87022 | 29 ft | 8 kts | 117° |
| 2026-05-07 18:51 | 19.09231 | 72.87087 | 31 ft | 10 kts | 89° |
| 2026-05-07 18:51 | 19.09233 | 72.87178 | 31 ft | 14 kts | 89° |
| 2026-05-07 18:52 | 19.09185 | 72.87257 | 31 ft | 14 kts | 160° |
| 2026-05-07 18:52 | 19.09085 | 72.87272 | 31 ft | 15 kts | 158° |
| 2026-05-07 18:52 | 19.09049 | 72.87368 | 31 ft | 16 kts | 90° |
| 2026-05-07 18:52 | 19.09051 | 72.87492 | 31 ft | 18 kts | 89° |
| 2026-05-07 18:53 | 19.09053 | 72.87638 | 31 ft | 21 kts | 89° |
| 2026-05-07 18:53 | 19.09055 | 72.87802 | 31 ft | 24 kts | 89° |
| 2026-05-07 18:53 | 19.09057 | 72.87983 | 31 ft | 18 kts | 89° |
| 2026-05-07 18:53 | 19.09033 | 72.88045 | 30 ft | 9 kts | 146° |
| 2026-05-07 18:54 | 19.09019 | 72.88048 | 30 ft | 0 kts | 176° |
| 2026-05-07 18:55 | 19.09017 | 72.88048 | 30 ft | 2 kts | 176° |
| 2026-05-07 18:55 | 19.08984 | 72.88051 | 30 ft | 7 kts | 175° |
| 2026-05-07 18:55 | 19.08916 | 72.88050 | 29 ft | 9 kts | 200° |
| 2026-05-07 18:56 | 19.08891 | 72.88000 | 29 ft | 9 kts | 257° |
| 2026-05-07 18:56 | 19.08887 | 72.87930 | 30 ft | 11 kts | 271° |
| 2026-05-07 18:56 | 19.08887 | 72.87840 | 30 ft | 13 kts | 269° |
| 2026-05-07 18:56 | 19.08885 | 72.87731 | 30 ft | 16 kts | 269° |
| 2026-05-07 18:57 | 19.08883 | 72.87601 | 30 ft | 19 kts | 269° |
| 2026-05-07 18:57 | 19.08882 | 72.87537 | 30 ft | 0 kts | 269° |
| 2026-05-07 18:57 | 19.08882 | 72.87523 | 30 ft | 13 kts | 269° |
| 2026-05-07 18:57 | 19.08877 | 72.87087 | 32 ft | 109 kts | 269° |
| 2026-05-07 18:58 | 19.08861 | 72.85968 | 44 ft | 192 kts | 269° |
| 2026-05-07 18:58 | 19.08842 | 72.84379 | 383 ft | 238 kts | 269° |
| 2026-05-07 18:58 | 19.08847 | 72.82497 | 1084 ft | 274 kts | 270° |
| 2026-05-07 18:58 | 19.08824 | 72.80447 | 2069 ft | 277 kts | 269° |
| 2026-05-07 18:59 | 19.08780 | 72.78398 | 2813 ft | 284 kts | 269° |
| 2026-05-07 18:59 | 19.08402 | 72.76315 | 3433 ft | 293 kts | 244° |
| 2026-05-07 18:59 | 19.07088 | 72.74677 | 4185 ft | 298 kts | 214° |
| 2026-05-07 18:59 | 19.05148 | 72.73941 | 4926 ft | 302 kts | 184° |
| 2026-05-07 19:00 | 19.03053 | 72.74114 | 5661 ft | 305 kts | 171° |
| 2026-05-07 19:00 | 19.00928 | 72.74418 | 6391 ft | 309 kts | 174° |
| 2026-05-07 19:00 | 18.98781 | 72.74581 | 7119 ft | 311 kts | 178° |
| 2026-05-07 19:00 | 18.96601 | 72.74642 | 7924 ft | 313 kts | 179° |
| 2026-05-07 19:01 | 18.94412 | 72.74652 | 8735 ft | 316 kts | 180° |
| 2026-05-07 19:01 | 18.92208 | 72.74631 | 9557 ft | 319 kts | 180° |
| 2026-05-07 19:01 | 18.89968 | 72.74591 | 10343 ft | 322 kts | 180° |
| 2026-05-07 19:01 | 18.87727 | 72.74542 | 11165 ft | 323 kts | 180° |
| 2026-05-07 19:02 | 18.85480 | 72.74487 | 12047 ft | 324 kts | 180° |
| 2026-05-07 19:02 | 18.83215 | 72.74430 | 12888 ft | 326 kts | 180° |
| 2026-05-07 19:02 | 18.80943 | 72.74371 | 13713 ft | 328 kts | 180° |
| 2026-05-07 19:02 | 18.78649 | 72.74336 | 14398 ft | 332 kts | 178° |
| 2026-05-07 19:03 | 18.76367 | 72.74727 | 15042 ft | 335 kts | 163° |
| 2026-05-07 19:03 | 18.74162 | 72.75466 | 15686 ft | 339 kts | 161° |
| 2026-05-07 19:03 | 18.71905 | 72.76272 | 16350 ft | 344 kts | 161° |
| 2026-05-07 19:03 | 18.69623 | 72.77081 | 17016 ft | 348 kts | 162° |
| 2026-05-07 19:04 | 18.67309 | 72.77894 | 17679 ft | 353 kts | 162° |
| 2026-05-07 19:04 | 18.64966 | 72.78712 | 18294 ft | 357 kts | 162° |
| 2026-05-07 19:04 | 18.62587 | 72.79541 | 18795 ft | 364 kts | 162° |
| 2026-05-07 19:04 | 18.60160 | 72.80385 | 19279 ft | 370 kts | 162° |
| 2026-05-07 19:05 | 18.57696 | 72.81240 | 19769 ft | 376 kts | 162° |
| 2026-05-07 19:05 | 18.55189 | 72.82111 | 20265 ft | 382 kts | 162° |
| 2026-05-07 19:05 | 18.52638 | 72.82996 | 20760 ft | 388 kts | 162° |
| 2026-05-07 19:05 | 18.50050 | 72.83894 | 21261 ft | 394 kts | 162° |
| 2026-05-07 19:06 | 18.48317 | 72.84495 | 21581 ft | 397 kts | 162° |
| 2026-05-07 19:06 | 18.42078 | 72.86657 | 22676 ft | 410 kts | 162° |
| 2026-05-07 19:06 | 18.40273 | 72.87282 | 22979 ft | 414 kts | 162° |
| 2026-05-07 19:07 | 18.37523 | 72.88235 | 23432 ft | 419 kts | 162° |
| 2026-05-07 19:07 | 18.33833 | 72.89513 | 24010 ft | 423 kts | 162° |
| 2026-05-07 19:07 | 18.31030 | 72.90483 | 24483 ft | 425 kts | 162° |
| 2026-05-07 19:07 | 18.28218 | 72.91456 | 24996 ft | 427 kts | 162° |
| 2026-05-07 19:08 | 18.26309 | 72.92116 | 25336 ft | 429 kts | 162° |
| 2026-05-07 19:08 | 18.23470 | 72.93097 | 25598 ft | 439 kts | 162° |
| 2026-05-07 19:08 | 18.20565 | 72.94101 | 26207 ft | 438 kts | 162° |
| 2026-05-07 19:08 | 18.17683 | 72.95097 | 26895 ft | 436 kts | 162° |
| 2026-05-07 19:09 | 18.14791 | 72.96096 | 27469 ft | 438 kts | 162° |
| 2026-05-07 19:09 | 18.11897 | 72.97134 | 27996 ft | 441 kts | 160° |
| 2026-05-07 19:09 | 18.09104 | 72.98485 | 28516 ft | 444 kts | 151° |
| 2026-05-07 19:09 | 18.06536 | 73.00285 | 29025 ft | 447 kts | 141° |
| 2026-05-07 19:10 | 18.04185 | 73.02433 | 29682 ft | 446 kts | 137° |
| 2026-05-07 19:10 | 18.01908 | 73.04628 | 30295 ft | 443 kts | 137° |
| 2026-05-07 19:10 | 17.99641 | 73.06810 | 30854 ft | 441 kts | 138° |
| 2026-05-07 19:10 | 17.97379 | 73.08980 | 31393 ft | 440 kts | 138° |
| 2026-05-07 19:11 | 17.95119 | 73.11144 | 31896 ft | 439 kts | 138° |
| 2026-05-07 19:11 | 17.94068 | 73.12148 | 32137 ft | 439 kts | 138° |
| 2026-05-07 19:11 | 17.93369 | 73.12816 | 32293 ft | 438 kts | 138° |
| 2026-05-07 19:11 | 17.91111 | 73.14973 | 32809 ft | 437 kts | 138° |
| 2026-05-07 19:12 | 17.88867 | 73.17114 | 33302 ft | 436 kts | 138° |
| 2026-05-07 19:12 | 17.86648 | 73.19229 | 33777 ft | 434 kts | 138° |
| 2026-05-07 19:12 | 17.84412 | 73.21361 | 34189 ft | 433 kts | 139° |
| 2026-05-07 19:12 | 17.82180 | 73.23488 | 34579 ft | 432 kts | 139° |
| 2026-05-07 19:13 | 17.79965 | 73.25597 | 34969 ft | 431 kts | 139° |
| 2026-05-07 19:13 | 17.77739 | 73.27717 | 35360 ft | 430 kts | 139° |
| 2026-05-07 19:13 | 17.75528 | 73.29821 | 35738 ft | 428 kts | 139° |
| 2026-05-07 19:13 | 17.73321 | 73.31920 | 36097 ft | 428 kts | 139° |
| 2026-05-07 19:14 | 17.71123 | 73.34010 | 36449 ft | 427 kts | 139° |
| 2026-05-07 19:14 | 17.69063 | 73.35969 | 36767 ft | 426 kts | 139° |
| 2026-05-07 19:14 | 17.66887 | 73.38037 | 37115 ft | 425 kts | 139° |
| 2026-05-07 19:14 | 17.64701 | 73.40114 | 37452 ft | 423 kts | 139° |
| 2026-05-07 19:15 | 17.62544 | 73.42162 | 37754 ft | 423 kts | 140° |
| 2026-05-07 19:15 | 17.60368 | 73.44229 | 38047 ft | 422 kts | 140° |
| 2026-05-07 19:15 | 17.58196 | 73.46290 | 38329 ft | 421 kts | 140° |
| 2026-05-07 19:15 | 17.56023 | 73.48351 | 38590 ft | 421 kts | 140° |
| 2026-05-07 19:16 | 17.53851 | 73.50411 | 38809 ft | 420 kts | 140° |
| 2026-05-07 19:16 | 17.51682 | 73.52467 | 38997 ft | 420 kts | 140° |
| 2026-05-07 19:16 | 17.49521 | 73.54516 | 39194 ft | 419 kts | 140° |
| 2026-05-07 19:16 | 17.47359 | 73.56564 | 39376 ft | 419 kts | 140° |
| 2026-05-07 19:17 | 17.45195 | 73.58614 | 39552 ft | 419 kts | 140° |
| 2026-05-07 19:17 | 17.43037 | 73.60657 | 39724 ft | 419 kts | 140° |
| 2026-05-07 19:17 | 17.40879 | 73.62700 | 39903 ft | 418 kts | 139° |
| 2026-05-07 19:17 | 17.38723 | 73.64740 | 40072 ft | 418 kts | 139° |
| 2026-05-07 19:18 | 17.36568 | 73.66779 | 40236 ft | 417 kts | 139° |
| 2026-05-07 19:18 | 17.34412 | 73.68818 | 40397 ft | 417 kts | 139° |
| 2026-05-07 19:18 | 17.32263 | 73.70849 | 40549 ft | 416 kts | 139° |
| 2026-05-07 19:18 | 17.30110 | 73.72882 | 40642 ft | 418 kts | 139° |
| 2026-05-07 19:19 | 17.25775 | 73.76977 | 40755 ft | 422 kts | 139° |
| 2026-05-07 19:19 | 17.21414 | 73.81093 | 40822 ft | 428 kts | 139° |
| 2026-05-07 19:20 | 17.16941 | 73.85311 | 40852 ft | 436 kts | 139° |
| 2026-05-07 19:20 | 17.12403 | 73.89589 | 40868 ft | 444 kts | 139° |
| 2026-05-07 19:21 | 17.07764 | 73.93958 | 40869 ft | 453 kts | 139° |
| 2026-05-07 19:21 | 17.03026 | 73.98417 | 40869 ft | 463 kts | 139° |
| 2026-05-07 19:22 | 16.98191 | 74.02965 | 40872 ft | 473 kts | 139° |
| 2026-05-07 19:22 | 16.93245 | 74.07614 | 40872 ft | 482 kts | 139° |
| 2026-05-07 19:23 | 16.88332 | 74.12424 | 40871 ft | 492 kts | 132° |
| 2026-05-07 19:23 | 16.83919 | 74.17977 | 40876 ft | 501 kts | 129° |
| 2026-05-07 19:24 | 16.79602 | 74.23757 | 40873 ft | 507 kts | 129° |
| 2026-05-07 19:24 | 16.75257 | 74.29571 | 40875 ft | 508 kts | 129° |
| 2026-05-07 19:25 | 16.70877 | 74.35373 | 40875 ft | 508 kts | 129° |
| 2026-05-07 19:25 | 16.66486 | 74.41160 | 40873 ft | 508 kts | 129° |
| 2026-05-07 19:26 | 16.62092 | 74.46942 | 40872 ft | 508 kts | 129° |
| 2026-05-07 19:26 | 16.57707 | 74.52710 | 40868 ft | 508 kts | 129° |
| 2026-05-07 19:27 | 16.53314 | 74.58485 | 40871 ft | 508 kts | 129° |
| 2026-05-07 19:27 | 16.48950 | 74.64218 | 40871 ft | 508 kts | 129° |
| 2026-05-07 19:28 | 16.44563 | 74.69985 | 40867 ft | 507 kts | 129° |
| 2026-05-07 19:28 | 16.40168 | 74.75741 | 40865 ft | 507 kts | 129° |
| 2026-05-07 19:29 | 16.35776 | 74.81491 | 40869 ft | 507 kts | 129° |
| 2026-05-07 19:29 | 16.31392 | 74.87228 | 40867 ft | 506 kts | 129° |
| 2026-05-07 19:30 | 16.27001 | 74.92973 | 40875 ft | 506 kts | 129° |
| 2026-05-07 19:30 | 16.22617 | 74.98703 | 40860 ft | 506 kts | 129° |
| 2026-05-07 19:31 | 16.18231 | 75.04430 | 40873 ft | 505 kts | 129° |
| 2026-05-07 19:31 | 16.13853 | 75.10142 | 40855 ft | 505 kts | 129° |
| 2026-05-07 19:32 | 16.09471 | 75.15855 | 40854 ft | 505 kts | 129° |
| 2026-05-07 19:32 | 16.05086 | 75.21568 | 40856 ft | 505 kts | 129° |
| 2026-05-07 19:33 | 16.00703 | 75.27276 | 40857 ft | 505 kts | 129° |
| 2026-05-07 19:33 | 15.96319 | 75.32977 | 40869 ft | 505 kts | 129° |
| 2026-05-07 19:34 | 15.91963 | 75.38638 | 40862 ft | 505 kts | 129° |
| 2026-05-07 19:34 | 15.87570 | 75.44344 | 40868 ft | 505 kts | 129° |
| 2026-05-07 19:35 | 15.83179 | 75.50042 | 40864 ft | 505 kts | 129° |
| 2026-05-07 19:35 | 15.78784 | 75.55740 | 40870 ft | 505 kts | 129° |
| 2026-05-07 19:36 | 15.74382 | 75.61444 | 40871 ft | 506 kts | 129° |
| 2026-05-07 19:36 | 15.69985 | 75.67137 | 40875 ft | 506 kts | 129° |
| 2026-05-07 19:37 | 15.65609 | 75.72800 | 40882 ft | 506 kts | 129° |
| 2026-05-07 19:37 | 15.61208 | 75.78488 | 40877 ft | 506 kts | 129° |
| 2026-05-07 19:38 | 15.56801 | 75.84181 | 40882 ft | 506 kts | 129° |
| 2026-05-07 19:38 | 15.52388 | 75.89877 | 40878 ft | 506 kts | 129° |
| 2026-05-07 19:39 | 15.47970 | 75.95576 | 40880 ft | 506 kts | 129° |
| 2026-05-07 19:39 | 15.43557 | 76.01264 | 40879 ft | 506 kts | 129° |
| 2026-05-07 19:40 | 15.39142 | 76.06951 | 40872 ft | 507 kts | 129° |
| 2026-05-07 19:40 | 15.34715 | 76.12647 | 40877 ft | 507 kts | 129° |
| 2026-05-07 19:41 | 15.30324 | 76.18294 | 40878 ft | 507 kts | 129° |
| 2026-05-07 19:41 | 15.25897 | 76.23982 | 40876 ft | 507 kts | 129° |
| 2026-05-07 19:42 | 15.21468 | 76.29669 | 40875 ft | 507 kts | 129° |
| 2026-05-07 19:42 | 15.17045 | 76.35344 | 40881 ft | 506 kts | 129° |
| 2026-05-07 19:43 | 15.12625 | 76.41013 | 40882 ft | 505 kts | 129° |
| 2026-05-07 19:43 | 15.08209 | 76.46666 | 40887 ft | 505 kts | 129° |
| 2026-05-07 19:44 | 15.03797 | 76.52311 | 40895 ft | 504 kts | 129° |
| 2026-05-07 19:44 | 14.99420 | 76.57909 | 40892 ft | 503 kts | 129° |
| 2026-05-07 19:45 | 14.95012 | 76.63543 | 40895 ft | 503 kts | 129° |
| 2026-05-07 19:45 | 14.90609 | 76.69166 | 40894 ft | 502 kts | 129° |
| 2026-05-07 19:46 | 14.86237 | 76.74745 | 40893 ft | 502 kts | 129° |
| 2026-05-07 19:46 | 14.81837 | 76.80356 | 40894 ft | 501 kts | 129° |
| 2026-05-07 19:47 | 14.77444 | 76.85955 | 40891 ft | 501 kts | 129° |
| 2026-05-07 19:47 | 14.73079 | 76.91514 | 40892 ft | 500 kts | 129° |
| 2026-05-07 19:48 | 14.68700 | 76.97086 | 40893 ft | 500 kts | 130° |
| 2026-05-07 19:48 | 14.64323 | 77.02652 | 40894 ft | 499 kts | 130° |
| 2026-05-07 19:49 | 14.60064 | 77.08321 | 40890 ft | 500 kts | 123° |
| 2026-05-07 19:49 | 14.57152 | 77.14834 | 40894 ft | 501 kts | 111° |
| 2026-05-07 19:50 | 14.54722 | 77.21585 | 40897 ft | 502 kts | 111° |
| 2026-05-07 19:50 | 14.52280 | 77.28334 | 40902 ft | 502 kts | 111° |
| 2026-05-07 19:51 | 14.49828 | 77.35082 | 40903 ft | 502 kts | 111° |
| 2026-05-07 19:51 | 14.47370 | 77.41830 | 40922 ft | 503 kts | 111° |
| 2026-05-07 19:52 | 14.44906 | 77.48584 | 40924 ft | 503 kts | 111° |
| 2026-05-07 19:52 | 14.42441 | 77.55338 | 40911 ft | 503 kts | 111° |
| 2026-05-07 19:53 | 14.39989 | 77.62045 | 40914 ft | 503 kts | 112° |
| 2026-05-07 19:53 | 14.37523 | 77.68786 | 40919 ft | 502 kts | 112° |
| 2026-05-07 19:54 | 14.35058 | 77.75517 | 40922 ft | 502 kts | 112° |
| 2026-05-07 19:54 | 14.32582 | 77.82270 | 40929 ft | 502 kts | 112° |
| 2026-05-07 19:55 | 14.30528 | 77.87868 | 40931 ft | 502 kts | 112° |
| 2026-05-07 19:55 | 14.28084 | 77.94525 | 40946 ft | 485 kts | 112° |
| 2026-05-07 19:56 | 14.26908 | 77.97730 | 40947 ft | 471 kts | 112° |
| 2026-05-07 19:56 | 14.25760 | 78.00852 | 40946 ft | 461 kts | 112° |
| 2026-05-07 19:56 | 14.23497 | 78.07000 | 40948 ft | 459 kts | 112° |
| 2026-05-07 19:57 | 14.21228 | 78.13159 | 40938 ft | 460 kts | 112° |
| 2026-05-07 19:57 | 14.18954 | 78.19327 | 40932 ft | 460 kts | 112° |
| 2026-05-07 19:58 | 14.16681 | 78.25487 | 40933 ft | 460 kts | 112° |
| 2026-05-07 19:58 | 14.14409 | 78.31643 | 40939 ft | 459 kts | 112° |
| 2026-05-07 19:59 | 14.12134 | 78.37797 | 40946 ft | 459 kts | 112° |
| 2026-05-07 19:59 | 14.09874 | 78.43906 | 40943 ft | 459 kts | 112° |
| 2026-05-07 20:00 | 14.07606 | 78.50035 | 40928 ft | 458 kts | 112° |
| 2026-05-07 20:00 | 14.05336 | 78.56162 | 40930 ft | 458 kts | 112° |
| 2026-05-07 20:01 | 14.02823 | 78.62171 | 40948 ft | 456 kts | 121° |
| 2026-05-07 20:01 | 13.99578 | 78.67770 | 40931 ft | 455 kts | 122° |
| 2026-05-07 20:02 | 13.96304 | 78.73347 | 40931 ft | 455 kts | 122° |
| 2026-05-07 20:02 | 13.93037 | 78.78927 | 40932 ft | 455 kts | 122° |
| 2026-05-07 20:03 | 13.89778 | 78.84495 | 40927 ft | 454 kts | 122° |
| 2026-05-07 20:03 | 13.88157 | 78.87265 | 40792 ft | 447 kts | 122° |
| 2026-05-07 20:03 | 13.86569 | 78.89978 | 40475 ft | 441 kts | 122° |
| 2026-05-07 20:04 | 13.84999 | 78.92659 | 39839 ft | 446 kts | 122° |
| 2026-05-07 20:04 | 13.83380 | 78.95420 | 38992 ft | 456 kts | 122° |
| 2026-05-07 20:04 | 13.81721 | 78.98252 | 38011 ft | 466 kts | 122° |
| 2026-05-07 20:04 | 13.80035 | 79.01126 | 36982 ft | 475 kts | 122° |
| 2026-05-07 20:05 | 13.78305 | 79.04075 | 36000 ft | 484 kts | 122° |
| 2026-05-07 20:05 | 13.76554 | 79.07059 | 35052 ft | 491 kts | 122° |
| 2026-05-07 20:05 | 13.74799 | 79.10051 | 34151 ft | 485 kts | 122° |
| 2026-05-07 20:05 | 13.73063 | 79.13010 | 33181 ft | 479 kts | 122° |
| 2026-05-07 20:06 | 13.71356 | 79.15918 | 32216 ft | 473 kts | 122° |
| 2026-05-07 20:06 | 13.69658 | 79.18808 | 31271 ft | 473 kts | 122° |
| 2026-05-07 20:06 | 13.67945 | 79.21722 | 30355 ft | 477 kts | 122° |
| 2026-05-07 20:06 | 13.66228 | 79.24643 | 29364 ft | 478 kts | 122° |
| 2026-05-07 20:07 | 13.64512 | 79.27561 | 28334 ft | 474 kts | 122° |
| 2026-05-07 20:07 | 13.62818 | 79.30440 | 27352 ft | 467 kts | 122° |
| 2026-05-07 20:07 | 13.61146 | 79.33282 | 26389 ft | 461 kts | 122° |
| 2026-05-07 20:07 | 13.59499 | 79.36081 | 25465 ft | 454 kts | 122° |
| 2026-05-07 20:08 | 13.57875 | 79.38840 | 24572 ft | 448 kts | 122° |
| 2026-05-07 20:08 | 13.56271 | 79.41563 | 23700 ft | 443 kts | 122° |
| 2026-05-07 20:08 | 13.54684 | 79.44256 | 22744 ft | 438 kts | 122° |
| 2026-05-07 20:08 | 13.53118 | 79.46915 | 21736 ft | 432 kts | 122° |
| 2026-05-07 20:09 | 13.51572 | 79.49540 | 20781 ft | 427 kts | 122° |
| 2026-05-07 20:09 | 13.50056 | 79.52112 | 19857 ft | 422 kts | 122° |
| 2026-05-07 20:09 | 13.48543 | 79.54676 | 18959 ft | 418 kts | 122° |
| 2026-05-07 20:10 | 13.45561 | 79.59726 | 17074 ft | 408 kts | 122° |
| 2026-05-07 20:10 | 13.44097 | 79.62201 | 16358 ft | 401 kts | 122° |
| 2026-05-07 20:10 | 13.42680 | 79.64600 | 15980 ft | 381 kts | 121° |
| 2026-05-07 20:10 | 13.41361 | 79.66857 | 15889 ft | 355 kts | 121° |
| 2026-05-07 20:11 | 13.40161 | 79.68941 | 15880 ft | 331 kts | 121° |
| 2026-05-07 20:11 | 13.39033 | 79.70899 | 15880 ft | 308 kts | 121° |
| 2026-05-07 20:11 | 13.37973 | 79.72736 | 15879 ft | 291 kts | 121° |
| 2026-05-07 20:11 | 13.36945 | 79.74516 | 15871 ft | 289 kts | 121° |
| 2026-05-07 20:12 | 13.35916 | 79.76294 | 15864 ft | 289 kts | 121° |
| 2026-05-07 20:12 | 13.34890 | 79.78068 | 15862 ft | 289 kts | 121° |
| 2026-05-07 20:12 | 13.33861 | 79.79845 | 15860 ft | 289 kts | 121° |
| 2026-05-07 20:12 | 13.32835 | 79.81617 | 15860 ft | 289 kts | 121° |
| 2026-05-07 20:13 | 13.31815 | 79.83378 | 15715 ft | 285 kts | 121° |
| 2026-05-07 20:13 | 13.30796 | 79.85136 | 15232 ft | 288 kts | 121° |
| 2026-05-07 20:13 | 13.29778 | 79.86890 | 14683 ft | 285 kts | 120° |
| 2026-05-07 20:13 | 13.28768 | 79.88632 | 14133 ft | 282 kts | 120° |
| 2026-05-07 20:14 | 13.27773 | 79.90348 | 13587 ft | 279 kts | 119° |
| 2026-05-07 20:14 | 13.26787 | 79.92049 | 12987 ft | 276 kts | 119° |
| 2026-05-07 20:14 | 13.25812 | 79.93730 | 12393 ft | 272 kts | 119° |
| 2026-05-07 20:14 | 13.24847 | 79.95394 | 11803 ft | 269 kts | 118° |
| 2026-05-07 20:15 | 13.23898 | 79.97031 | 11222 ft | 266 kts | 118° |
| 2026-05-07 20:15 | 13.22956 | 79.98654 | 10680 ft | 263 kts | 118° |
| 2026-05-07 20:15 | 13.22027 | 80.00254 | 10121 ft | 260 kts | 118° |
| 2026-05-07 20:15 | 13.21108 | 80.01838 | 9562 ft | 257 kts | 118° |
| 2026-05-07 20:16 | 13.20313 | 80.03208 | 9103 ft | 252 kts | 118° |
| 2026-05-07 20:16 | 13.19415 | 80.04691 | 8882 ft | 234 kts | 122° |
| 2026-05-07 20:16 | 13.18342 | 80.05835 | 8869 ft | 217 kts | 140° |
| 2026-05-07 20:16 | 13.17003 | 80.06532 | 8845 ft | 219 kts | 160° |
| 2026-05-07 20:17 | 13.15483 | 80.06713 | 8840 ft | 222 kts | 180° |
| 2026-05-07 20:17 | 13.13964 | 80.06561 | 8627 ft | 216 kts | 185° |
| 2026-05-07 20:17 | 13.12492 | 80.06355 | 8120 ft | 218 kts | 185° |
| 2026-05-07 20:17 | 13.10983 | 80.06145 | 7618 ft | 219 kts | 185° |
| 2026-05-07 20:18 | 13.09417 | 80.05935 | 6865 ft | 232 kts | 185° |
| 2026-05-07 20:18 | 13.07798 | 80.05689 | 6051 ft | 245 kts | 189° |
| 2026-05-07 20:18 | 13.06184 | 80.05037 | 5189 ft | 255 kts | 211° |
| 2026-05-07 20:18 | 13.04937 | 80.03754 | 4539 ft | 256 kts | 237° |
| 2026-05-07 20:19 | 13.04198 | 80.02140 | 4274 ft | 240 kts | 248° |
| 2026-05-07 20:19 | 13.03639 | 80.00628 | 4265 ft | 213 kts | 249° |
| 2026-05-07 20:19 | 13.03136 | 79.99261 | 4251 ft | 201 kts | 248° |
| 2026-05-07 20:19 | 13.02638 | 79.97929 | 4234 ft | 199 kts | 248° |
| 2026-05-07 20:20 | 13.02139 | 79.96607 | 4236 ft | 199 kts | 248° |
| 2026-05-07 20:20 | 13.01638 | 79.95287 | 4225 ft | 196 kts | 248° |
| 2026-05-07 20:20 | 13.01153 | 79.94013 | 4223 ft | 190 kts | 248° |
| 2026-05-07 20:20 | 13.00664 | 79.92736 | 3938 ft | 193 kts | 248° |
| 2026-05-07 20:21 | 13.00023 | 79.91552 | 3678 ft | 189 kts | 229° |
| 2026-05-07 20:21 | 12.98976 | 79.90745 | 3259 ft | 191 kts | 198° |
| 2026-05-07 20:21 | 12.97673 | 79.90577 | 2817 ft | 191 kts | 168° |
| 2026-05-07 20:21 | 12.96470 | 79.91073 | 2439 ft | 189 kts | 140° |
| 2026-05-07 20:22 | 12.95637 | 79.92041 | 2311 ft | 174 kts | 122° |
| 2026-05-07 20:22 | 12.94907 | 79.92968 | 2302 ft | 164 kts | 133° |
| 2026-05-07 20:22 | 12.94095 | 79.93786 | 2307 ft | 163 kts | 133° |
| 2026-05-07 20:22 | 12.93276 | 79.94597 | 2300 ft | 164 kts | 134° |
| 2026-05-07 20:23 | 12.92447 | 79.95398 | 2303 ft | 164 kts | 134° |
| 2026-05-07 20:23 | 12.91743 | 79.96304 | 2288 ft | 163 kts | 112° |
| 2026-05-07 20:23 | 12.91661 | 79.97434 | 2305 ft | 160 kts | 77° |
| 2026-05-07 20:23 | 12.92017 | 79.98520 | 2080 ft | 165 kts | 69° |
| 2026-05-07 20:24 | 12.92450 | 79.99598 | 1881 ft | 159 kts | 68° |
| 2026-05-07 20:24 | 12.92859 | 80.00616 | 1703 ft | 151 kts | 69° |
| 2026-05-07 20:24 | 12.93243 | 80.01600 | 1609 ft | 149 kts | 69° |
| 2026-05-07 20:24 | 12.93624 | 80.02588 | 1599 ft | 149 kts | 70° |
| 2026-05-07 20:25 | 12.94003 | 80.03581 | 1598 ft | 148 kts | 70° |
| 2026-05-07 20:25 | 12.94372 | 80.04556 | 1594 ft | 145 kts | 70° |
| 2026-05-07 20:25 | 12.94723 | 80.05480 | 1593 ft | 134 kts | 70° |
| 2026-05-07 20:25 | 12.95054 | 80.06360 | 1598 ft | 132 kts | 70° |
| 2026-05-07 20:26 | 12.95380 | 80.07232 | 1597 ft | 133 kts | 70° |
| 2026-05-07 20:26 | 12.95719 | 80.08131 | 1598 ft | 134 kts | 70° |
| 2026-05-07 20:26 | 12.96051 | 80.09010 | 1590 ft | 134 kts | 70° |
| 2026-05-07 20:26 | 12.96389 | 80.09906 | 1595 ft | 134 kts | 70° |
| 2026-05-07 20:27 | 12.96722 | 80.10789 | 1609 ft | 134 kts | 70° |
| 2026-05-07 20:27 | 12.97066 | 80.11696 | 1484 ft | 135 kts | 71° |
| 2026-05-07 20:27 | 12.97406 | 80.12600 | 1125 ft | 137 kts | 71° |
| 2026-05-07 20:27 | 12.97744 | 80.13512 | 741 ft | 141 kts | 69° |
| 2026-05-07 20:28 | 12.98100 | 80.14460 | 374 ft | 142 kts | 69° |
| 2026-05-07 20:28 | 12.98442 | 80.15393 | 99 ft | 137 kts | 75° |
| 2026-05-07 20:28 | 12.98751 | 80.16174 | 215 ft | 160 kts | 71° |
| 2026-05-07 20:28 | 12.99235 | 80.17445 | 524 ft | 223 kts | 70° |
| 2026-05-07 20:29 | 12.99823 | 80.19141 | 929 ft | 286 kts | 72° |
| 2026-05-07 20:29 | 13.00463 | 80.21281 | 1171 ft | 331 kts | 75° |
| 2026-05-07 20:29 | 13.01057 | 80.23601 | 1397 ft | 340 kts | 77° |
| 2026-05-07 20:29 | 13.01569 | 80.25973 | 1641 ft | 348 kts | 79° |
| 2026-05-07 20:30 | 13.01834 | 80.28421 | 1971 ft | 344 kts | 94° |
| 2026-05-07 20:30 | 13.01224 | 80.30637 | 2352 ft | 311 kts | 118° |
| 2026-05-07 20:30 | 12.99825 | 80.32194 | 2466 ft | 291 kts | 145° |
| 2026-05-07 20:30 | 12.97909 | 80.32963 | 2502 ft | 313 kts | 165° |
| 2026-05-07 20:31 | 12.95669 | 80.33143 | 2486 ft | 322 kts | 181° |
| 2026-05-07 20:31 | 12.93535 | 80.32728 | 2487 ft | 303 kts | 196° |
| 2026-05-07 20:31 | 12.91700 | 80.31825 | 2466 ft | 285 kts | 212° |
| 2026-05-07 20:31 | 12.90249 | 80.30547 | 2488 ft | 269 kts | 227° |
| 2026-05-07 20:32 | 12.89318 | 80.28940 | 2490 ft | 267 kts | 251° |
| 2026-05-07 20:32 | 12.89086 | 80.27060 | 2497 ft | 267 kts | 271° |
| 2026-05-07 20:32 | 12.89197 | 80.25135 | 2494 ft | 268 kts | 275° |
| 2026-05-07 20:32 | 12.89346 | 80.23261 | 2493 ft | 268 kts | 275° |
| 2026-05-07 20:33 | 12.89306 | 80.21355 | 2496 ft | 268 kts | 261° |
| 2026-05-07 20:33 | 12.88926 | 80.19494 | 2492 ft | 267 kts | 255° |
| 2026-05-07 20:33 | 12.88419 | 80.17669 | 2496 ft | 267 kts | 253° |
| 2026-05-07 20:33 | 12.87889 | 80.15849 | 2491 ft | 267 kts | 253° |
| 2026-05-07 20:34 | 12.87360 | 80.14020 | 2494 ft | 267 kts | 253° |
| 2026-05-07 20:34 | 12.86836 | 80.12191 | 2494 ft | 267 kts | 253° |
| 2026-05-07 20:34 | 12.86307 | 80.10353 | 2491 ft | 267 kts | 252° |
| 2026-05-07 20:34 | 12.85782 | 80.08530 | 2495 ft | 267 kts | 253° |
| 2026-05-07 20:35 | 12.85216 | 80.06710 | 2490 ft | 266 kts | 249° |
| 2026-05-07 20:35 | 12.84516 | 80.04958 | 2490 ft | 266 kts | 244° |
| 2026-05-07 20:35 | 12.83616 | 80.03301 | 2494 ft | 265 kts | 236° |
| 2026-05-07 20:35 | 12.82606 | 80.01750 | 2492 ft | 265 kts | 235° |
| 2026-05-07 20:36 | 12.81815 | 80.00066 | 2489 ft | 260 kts | 253° |
| 2026-05-07 20:36 | 12.81649 | 79.98249 | 2434 ft | 257 kts | 277° |
| 2026-05-07 20:36 | 12.82294 | 79.96575 | 2304 ft | 252 kts | 309° |
| 2026-05-07 20:36 | 12.83659 | 79.95515 | 2288 ft | 247 kts | 341° |
| 2026-05-07 20:37 | 12.85321 | 79.95386 | 2305 ft | 240 kts | 12° |
| 2026-05-07 20:37 | 12.86958 | 79.95724 | 2281 ft | 240 kts | 14° |
| 2026-05-07 20:37 | 12.88574 | 79.96023 | 2278 ft | 233 kts | 11° |
| 2026-05-07 20:37 | 12.90153 | 79.96349 | 2278 ft | 230 kts | 21° |
| 2026-05-07 20:38 | 12.91482 | 79.97209 | 2191 ft | 227 kts | 49° |
| 2026-05-07 20:38 | 12.92254 | 79.98600 | 1866 ft | 224 kts | 70° |
| 2026-05-07 20:38 | 12.92783 | 80.00081 | 1775 ft | 214 kts | 71° |
| 2026-05-07 20:38 | 12.93254 | 80.01421 | 1777 ft | 184 kts | 71° |
| 2026-05-07 20:39 | 12.93663 | 80.02562 | 1765 ft | 159 kts | 71° |
| 2026-05-07 20:39 | 12.94020 | 80.03542 | 1751 ft | 136 kts | 70° |
| 2026-05-07 20:39 | 12.94345 | 80.04427 | 1765 ft | 131 kts | 70° |
| 2026-05-07 20:39 | 12.94667 | 80.05296 | 1770 ft | 131 kts | 70° |
| 2026-05-07 20:40 | 12.94992 | 80.06171 | 1769 ft | 131 kts | 70° |
| 2026-05-07 20:40 | 12.95316 | 80.07041 | 1758 ft | 131 kts | 70° |
| 2026-05-07 20:40 | 12.95633 | 80.07923 | 1765 ft | 132 kts | 71° |
| 2026-05-07 20:40 | 12.95965 | 80.08794 | 1704 ft | 131 kts | 69° |
| 2026-05-07 20:41 | 12.96193 | 80.09364 | 1631 ft | 131 kts | 69° |
| 2026-05-07 20:41 | 12.96546 | 80.10225 | 1480 ft | 133 kts | 69° |
| 2026-05-07 20:41 | 12.97013 | 80.11395 | 1161 ft | 131 kts | 70° |
| 2026-05-07 20:41 | 12.97323 | 80.12235 | 896 ft | 130 kts | 72° |
| 2026-05-07 20:42 | 12.97618 | 80.13115 | 629 ft | 132 kts | 71° |
| 2026-05-07 20:42 | 12.97930 | 80.14000 | 359 ft | 132 kts | 71° |
| 2026-05-07 20:42 | 12.98155 | 80.14593 | 237 ft | 133 kts | 69° |
| 2026-05-07 20:42 | 12.98488 | 80.15475 | 103 ft | 133 kts | 68° |
| 2026-05-07 20:43 | 12.98811 | 80.16350 | 56 ft | 132 kts | 69° |
| 2026-05-07 20:43 | 12.99091 | 80.17099 | 57 ft | 75 kts | 70° |
| 2026-05-07 20:43 | 12.99172 | 80.17316 | 56 ft | 0 kts | 68° |
| 2026-05-07 20:43 | 12.99179 | 80.17335 | 53 ft | 10 kts | 68° |
| 2026-05-07 20:44 | 12.99222 | 80.17447 | 55 ft | 23 kts | 69° |
| 2026-05-07 20:44 | 12.99281 | 80.17606 | 56 ft | 14 kts | 78° |
| 2026-05-07 20:44 | 12.99260 | 80.17659 | 59 ft | 7 kts | 135° |
| 2026-05-07 20:44 | 12.99231 | 80.17676 | 57 ft | 4 kts | 153° |
| 2026-05-07 20:45 | 12.99186 | 80.17696 | 53 ft | 9 kts | 161° |
| 2026-05-07 20:45 | 12.99127 | 80.17680 | 53 ft | 9 kts | 232° |
| 2026-05-07 20:45 | 12.99097 | 80.17607 | 55 ft | 13 kts | 249° |
| 2026-05-07 20:45 | 12.99060 | 80.17506 | 54 ft | 18 kts | 249° |
| 2026-05-07 20:46 | 12.99011 | 80.17374 | 54 ft | 21 kts | 249° |
| 2026-05-07 20:46 | 12.98946 | 80.17226 | 54 ft | 24 kts | 244° |
| 2026-05-07 20:46 | 12.98883 | 80.17069 | 54 ft | 25 kts | 249° |
| 2026-05-07 20:46 | 12.98819 | 80.16896 | 53 ft | 27 kts | 248° |
| 2026-05-07 20:47 | 12.98749 | 80.16715 | 57 ft | 28 kts | 248° |
| 2026-05-07 20:47 | 12.98676 | 80.16526 | 54 ft | 29 kts | 249° |
| 2026-05-07 20:47 | 12.98604 | 80.16328 | 54 ft | 30 kts | 249° |
| 2026-05-07 20:47 | 12.98535 | 80.16157 | 54 ft | 16 kts | 231° |
| 2026-05-07 20:48 | 12.98478 | 80.16143 | 58 ft | 9 kts | 171° |
| 2026-05-07 20:48 | 12.98413 | 80.16165 | 53 ft | 11 kts | 161° |
| 2026-05-07 20:48 | 12.98368 | 80.16143 | 54 ft | 6 kts | 240° |
| 2026-05-07 20:48 | 12.98346 | 80.16091 | 54 ft | 10 kts | 247° |
| 2026-05-07 20:49 | 12.98312 | 80.16040 | 57 ft | 5 kts | 196° |
| 2026-05-07 20:49 | 12.98273 | 80.16050 | 54 ft | 7 kts | 160° |
| 2026-05-07 20:49 | 12.98268 | 80.16052 | 52 ft | 0 kts | 160° |